Time;durP1;ratioP1;P1;durP2;ratioP2;P2;SDS_P1;SDS_P2;PMS_P1;PMS_P2;Temp;Humidity;BMP_temperature;BMP_pressure;BME280_temperature;BME280_humidity;BME280_pressure;Samples;Min_cycle;Max_cycle;Signal;HPM_P1;HPM_P2
2022/07/14 00:01:39;;;;;;;22.40;12.32;;;19.20;91.60;;;;;;4996028;28;20060;-86
2022/07/14 00:04:06;;;;;;;23.27;12.05;;;19.30;91.10;;;;;;4998047;28;20026;-87
2022/07/14 00:06:33;;;;;;;15.13;10.63;;;19.30;90.50;;;;;;5007451;28;20141;-87
2022/07/14 00:08:59;;;;;;;15.40;10.68;;;19.30;90.60;;;;;;5006324;28;20034;-87
2022/07/14 00:11:25;;;;;;;18.02;10.85;;;19.40;90.20;;;;;;4994595;28;20022;-87
2022/07/14 00:13:51;;;;;;;22.92;12.07;;;19.40;90.20;;;;;;4977362;28;20723;-88
2022/07/14 00:16:18;;;;;;;18.10;11.35;;;19.40;90.20;;;;;;4995036;28;20035;-86
2022/07/14 00:18:44;;;;;;;18.83;11.43;;;19.40;90.40;;;;;;5003171;28;20042;-87
2022/07/14 00:21:11;;;;;;;20.27;11.80;;;19.40;90.10;;;;;;5004738;28;20398;-88
2022/07/14 00:23:37;;;;;;;21.77;12.50;;;19.40;90.10;;;;;;5013593;28;20437;-87
2022/07/14 00:26:04;;;;;;;22.67;11.85;;;19.40;90.10;;;;;;5004380;28;20030;-87
2022/07/14 00:28:30;;;;;;;22.98;12.43;;;19.40;90.20;;;;;;4986898;28;20030;-87
2022/07/14 00:30:56;;;;;;;19.42;11.02;;;19.30;90.10;;;;;;4999504;28;20030;-88
2022/07/14 00:33:21;;;;;;;17.48;11.80;;;19.30;90.10;;;;;;5003926;28;20268;-87
2022/07/14 00:35:47;;;;;;;16.23;11.10;;;19.30;89.70;;;;;;4997844;28;20026;-88
2022/07/14 00:38:13;;;;;;;16.35;11.55;;;19.30;89.30;;;;;;5008735;28;20069;-88
2022/07/14 00:40:39;;;;;;;19.52;11.48;;;19.40;89.50;;;;;;4995203;28;20034;-87
2022/07/14 00:43:05;;;;;;;22.65;11.52;;;19.40;89.50;;;;;;4990407;28;20029;-87
2022/07/14 00:45:31;;;;;;;24.15;11.95;;;19.40;89.30;;;;;;5013670;28;20054;-87
2022/07/14 00:47:57;;;;;;;26.98;11.45;;;19.40;89.00;;;;;;5008008;28;20037;-87
2022/07/14 00:50:22;;;;;;;23.80;11.90;;;19.50;89.30;;;;;;4996817;28;20026;-86
2022/07/14 00:52:50;;;;;;;23.13;11.88;;;19.40;89.20;;;;;;5008492;28;20026;-88
2022/07/14 00:55:16;;;;;;;;;;;19.40;89.00;;;;;;4997967;28;20487;-87
2022/07/14 00:57:42;;;;;;;24.08;12.68;;;19.40;88.80;;;;;;5005278;28;19913;-86
2022/07/14 01:00:12;;;;;;;29.48;12.43;;;19.40;89.70;;;;;;5012052;28;20478;-87
2022/07/14 01:02:38;;;;;;;18.95;11.93;;;19.30;89.80;;;;;;5013064;28;20423;-87
2022/07/14 01:05:06;;;;;;;25.35;12.80;;;19.30;90.10;;;;;;4995467;28;20116;-87
2022/07/14 01:07:32;;;;;;;22.67;12.35;;;19.30;90.00;;;;;;4985945;28;20036;-86
2022/07/14 01:09:58;;;;;;;25.75;12.13;;;19.20;90.00;;;;;;4979377;28;20022;-87
2022/07/14 01:12:24;;;;;;;18.27;12.18;;;19.20;90.00;;;;;;5000172;28;20019;-87
2022/07/14 01:14:50;;;;;;;18.77;10.98;;;19.10;90.00;;;;;;5011488;28;20022;-88
2022/07/14 01:17:16;;;;;;;18.58;10.68;;;19.10;89.70;;;;;;5009820;28;20052;-86
2022/07/14 01:19:41;;;;;;;16.98;10.90;;;19.10;89.90;;;;;;4997555;28;20042;-88
2022/07/14 01:22:07;;;;;;;23.70;11.98;;;19.10;89.90;;;;;;4998636;28;20014;-88
2022/07/14 01:24:33;;;;;;;22.55;11.98;;;19.10;90.00;;;;;;5001324;28;20364;-88
2022/07/14 01:26:59;;;;;;;21.70;11.07;;;19.10;89.60;;;;;;5010837;28;20026;-86
2022/07/14 01:29:25;;;;;;;19.63;11.85;;;19.10;89.50;;;;;;5005998;28;20027;-88
2022/07/14 01:31:52;;;;;;;22.50;11.85;;;19.10;88.90;;;;;;5002615;28;20022;-87
2022/07/14 01:34:18;;;;;;;22.47;11.27;;;19.10;88.50;;;;;;5001237;28;20041;-88
2022/07/14 01:36:44;;;;;;;32.72;11.77;;;19.20;88.40;;;;;;5003440;28;20057;-87
2022/07/14 01:39:10;;;;;;;19.95;11.18;;;19.20;88.40;;;;;;5000053;28;20034;-88
2022/07/14 01:41:36;;;;;;;21.70;11.55;;;19.20;88.50;;;;;;5000230;28;20018;-88
2022/07/14 01:44:03;;;;;;;15.25;10.75;;;19.20;88.60;;;;;;4999461;28;20053;-87
2022/07/14 01:46:29;;;;;;;17.30;11.17;;;19.20;88.30;;;;;;4997678;28;20018;-86
2022/07/14 01:48:55;;;;;;;19.20;11.13;;;19.20;88.20;;;;;;5006610;28;20072;-88
2022/07/14 01:51:21;;;;;;;18.50;10.57;;;19.30;88.10;;;;;;4979627;28;20037;-86
2022/07/14 01:53:47;;;;;;;19.00;10.60;;;19.20;87.20;;;;;;5004658;28;20025;-86
2022/07/14 01:56:13;;;;;;;17.10;10.48;;;19.30;86.70;;;;;;4993086;28;20026;-86
2022/07/14 01:58:42;;;;;;;18.48;10.80;;;19.30;86.70;;;;;;4987276;28;20480;-85
2022/07/14 02:03:59;;;;;;;12.73;8.63;;;19.30;85.50;;;;;;5004641;28;20064;-86
2022/07/14 02:06:25;;;;;;;;;;;19.30;85.10;;;;;;5004643;28;20027;-87
2022/07/14 02:08:50;;;;;;;11.93;8.90;;;19.40;85.00;;;;;;4991294;28;20024;-87
2022/07/14 02:14:03;;;;;;;16.65;9.57;;;19.60;83.50;;;;;;4997437;28;20049;-86
2022/07/14 02:16:30;;;;;;;14.90;8.75;;;19.70;83.10;;;;;;5007543;28;20019;-87
2022/07/14 02:18:58;;;;;;;;;;;19.80;82.90;;;;;;5002135;28;20129;-85
2022/07/14 02:21:33;;;;;;;14.98;9.13;;;19.90;83.00;;;;;;5004472;28;20007;-86
2022/07/14 02:24:02;;;;;;;11.85;9.70;;;20.00;83.00;;;;;;4997355;28;20172;-87
2022/07/14 02:26:30;;;;;;;15.07;10.70;;;20.10;83.10;;;;;;4995752;28;20033;-86
2022/07/14 02:28:56;;;;;;;18.77;10.82;;;20.00;83.30;;;;;;4981151;28;20025;-86
2022/07/14 02:31:25;;;;;;;16.80;10.50;;;20.00;84.40;;;;;;4980576;28;20034;-87
2022/07/14 02:33:51;;;;;;;20.48;11.15;;;20.00;85.50;;;;;;5000552;28;20041;-86
2022/07/14 02:36:17;;;;;;;21.85;11.20;;;19.90;83.90;;;;;;4980268;28;20085;-87
2022/07/14 02:38:43;;;;;;;19.13;11.73;;;19.80;84.50;;;;;;5003287;28;20503;-87
2022/07/14 02:41:17;;;;;;;22.20;11.05;;;19.70;85.70;;;;;;5001196;28;20026;-87
2022/07/14 02:43:53;;;;;;;;;;;;;;;;;;;;;
2022/07/14 02:46:21;;;;;;;17.13;9.52;;;19.80;84.30;;;;;;4994912;28;20117;-88
2022/07/14 02:48:49;;;;;;;19.48;9.57;;;19.70;82.90;;;;;;5001195;28;20036;-88
2022/07/14 02:51:19;;;;;;;17.27;8.30;;;19.80;82.70;;;;;;4983672;28;20476;-85
2022/07/14 02:53:48;;;;;;;14.95;8.75;;;19.90;82.20;;;;;;5001927;28;20022;-87
2022/07/14 02:56:23;;;;;;;11.40;7.55;;;19.90;81.70;;;;;;4978376;28;20027;-86
2022/07/14 02:58:49;;;;;;;11.63;6.65;;;19.90;80.80;;;;;;5010216;28;20056;-86
2022/07/14 03:01:14;;;;;;;5.75;4.28;;;19.90;79.00;;;;;;5006202;28;20015;-86
2022/07/14 03:03:41;;;;;;;11.73;4.78;;;20.00;75.10;;;;;;4983073;28;20017;-87
2022/07/14 03:06:11;;;;;;;8.05;4.53;;;20.00;74.30;;;;;;4993795;28;20443;-86
2022/07/14 03:08:38;;;;;;;6.80;4.18;;;20.00;73.50;;;;;;5005181;28;20076;-86
2022/07/14 03:11:04;;;;;;;9.52;4.40;;;20.00;73.50;;;;;;5028206;28;20017;-86
2022/07/14 03:13:30;;;;;;;9.18;4.05;;;20.10;73.60;;;;;;5025799;28;20391;-86
2022/07/14 03:15:56;;;;;;;7.88;4.07;;;20.10;72.70;;;;;;4993825;28;20025;-86
2022/07/14 03:18:24;;;;;;;6.90;3.75;;;20.10;72.80;;;;;;4995754;28;20070;-87
2022/07/14 03:20:50;;;;;;;;;;;20.00;72.50;;;;;;4996354;28;20403;-86
2022/07/14 03:23:16;;;;;;;5.30;3.75;;;20.10;73.40;;;;;;4979244;28;19908;-86
2022/07/14 03:25:42;;;;;;;4.45;3.55;;;20.00;73.30;;;;;;4985411;28;20088;-88
2022/07/14 03:28:08;;;;;;;8.95;4.10;;;20.00;72.50;;;;;;4990381;28;20113;-86
2022/07/14 03:30:37;;;;;;;5.43;3.00;;;20.00;72.60;;;;;;4970067;28;20202;-87
2022/07/14 03:33:06;;;;;;;5.05;3.22;;;20.00;72.60;;;;;;4989573;28;20451;-87
2022/07/14 03:35:32;;;;;;;4.45;3.20;;;20.00;72.50;;;;;;4989342;28;20420;-86
2022/07/14 03:37:57;;;;;;;2.85;2.55;;;19.90;71.80;;;;;;4972573;28;20197;-87
2022/07/14 03:40:23;;;;;;;3.35;3.05;;;19.80;72.00;;;;;;4969704;28;20142;-87
2022/07/14 03:42:51;;;;;;;4.70;2.55;;;19.70;73.30;;;;;;4975904;28;20042;-87
2022/07/14 03:45:16;;;;;;;5.75;3.33;;;19.60;73.30;;;;;;5000637;28;20041;-88
2022/07/14 03:47:42;;;;;;;6.53;3.70;;;19.60;73.60;;;;;;4989310;28;20023;-88
2022/07/14 03:50:10;;;;;;;9.25;3.70;;;19.60;73.30;;;;;;4996068;28;20533;-87
2022/07/14 03:52:36;;;;;;;5.38;3.53;;;19.60;73.80;;;;;;4981336;28;20019;-87
2022/07/14 03:55:02;;;;;;;5.15;3.47;;;19.70;73.30;;;;;;4981174;28;20129;-87
2022/07/14 03:57:28;;;;;;;6.38;3.65;;;19.70;74.30;;;;;;4989686;28;20018;-87
2022/07/14 03:59:54;;;;;;;6.45;3.40;;;19.80;73.20;;;;;;4996799;28;20108;-85
2022/07/14 04:02:20;;;;;;;8.35;3.95;;;19.90;73.00;;;;;;4988467;28;20083;-86
2022/07/14 04:04:46;;;;;;;4.75;3.58;;;20.00;74.30;;;;;;5001723;28;20068;-86
2022/07/14 04:07:12;;;;;;;5.68;3.72;;;20.00;73.60;;;;;;4982534;28;20026;-86
2022/07/14 04:09:38;;;;;;;7.28;3.47;;;20.10;72.50;;;;;;4993581;28;20081;-86
2022/07/14 04:12:04;;;;;;;9.48;3.50;;;20.20;71.80;;;;;;5003010;28;20101;-86
2022/07/14 04:14:40;;;;;;;7.30;3.90;;;20.30;71.80;;;;;;5005878;28;20414;-85
2022/07/14 04:17:06;;;;;;;7.45;3.30;;;20.40;72.20;;;;;;4983844;28;20076;-86
2022/07/14 04:19:35;;;;;;;7.50;2.95;;;20.60;72.10;;;;;;4993719;28;20046;-86
2022/07/14 04:22:01;;;;;;;6.50;3.33;;;20.70;70.80;;;;;;4995521;28;20042;-87
2022/07/14 04:24:27;;;;;;;6.35;3.58;;;20.80;69.70;;;;;;4978789;28;20022;-87
2022/07/14 04:26:53;;;;;;;6.97;4.07;;;20.90;69.40;;;;;;4998439;28;20101;-89
2022/07/14 04:29:19;;;;;;;11.70;4.72;;;21.00;70.10;;;;;;4995441;28;20104;-86
2022/07/14 04:31:44;;;;;;;7.75;4.50;;;21.10;69.30;;;;;;4993860;28;20034;-88
2022/07/14 04:34:10;;;;;;;8.27;3.80;;;21.20;69.00;;;;;;4995251;28;20030;-87
2022/07/14 04:36:36;;;;;;;16.80;5.50;;;21.30;70.10;;;;;;4977391;28;20384;-87
2022/07/14 04:39:05;;;;;;;13.85;7.43;;;21.40;68.70;;;;;;4980166;28;20049;-88
2022/07/14 04:41:31;;;;;;;11.05;6.15;;;21.40;68.40;;;;;;4996737;28;20018;-87
2022/07/14 04:43:57;;;;;;;6.25;3.88;;;21.40;68.40;;;;;;4981541;28;20030;-88
2022/07/14 04:46:23;;;;;;;11.60;6.17;;;21.40;68.60;;;;;;4995736;28;20045;-89
2022/07/14 04:54:25;;;;;;;11.05;7.10;;;21.70;68.40;;;;;;4988960;28;20420;-89
2022/07/14 04:56:51;;;;;;;15.15;8.77;;;21.90;68.10;;;;;;4985950;28;20030;-87
2022/07/14 04:59:17;;;;;;;18.40;9.27;;;22.00;66.90;;;;;;4998687;28;20042;-89
2022/07/14 05:01:42;;;;;;;10.55;6.28;;;22.10;66.80;;;;;;5000948;28;20025;-87
2022/07/14 05:04:09;;;;;;;8.32;4.43;;;22.10;66.90;;;;;;5007887;28;20052;-87
2022/07/14 05:06:35;;;;;;;9.35;5.50;;;22.10;66.70;;;;;;5003270;28;20022;-87
2022/07/14 05:09:02;;;;;;;7.20;4.75;;;22.20;67.60;;;;;;5010255;28;20037;-86
2022/07/14 05:11:28;;;;;;;9.80;4.78;;;22.30;66.80;;;;;;4988041;28;20361;-85
2022/07/14 05:13:53;;;;;;;7.00;4.43;;;22.50;66.10;;;;;;4992151;28;20034;-86
2022/07/14 05:16:19;;;;;;;12.30;5.35;;;22.70;64.30;;;;;;4988079;28;20557;-88
2022/07/14 05:18:48;;;;;;;9.98;4.78;;;22.90;64.00;;;;;;4999543;28;20062;-89
2022/07/14 05:21:26;;;;;;;14.75;5.90;;;23.30;64.10;;;;;;5000671;28;20026;-88
2022/07/14 05:23:52;;;;;;;14.57;6.15;;;24.10;65.00;;;;;;4977310;28;20046;-85
2022/07/14 05:26:18;;;;;;;10.53;6.67;;;24.50;61.80;;;;;;4998071;28;20467;-86
2022/07/14 05:28:44;;;;;;;7.32;4.13;;;;;;;;;;5006658;28;20025;-88
2022/07/14 05:31:10;;;;;;;11.20;5.07;;;25.50;59.40;;;;;;4996867;28;20431;-87
2022/07/14 05:33:36;;;;;;;9.18;4.38;;;28.10;53.70;;;;;;5008909;28;20018;-87
2022/07/14 05:36:03;;;;;;;7.65;4.03;;;28.50;50.60;;;;;;4991089;28;20038;-86
2022/07/14 05:38:31;;;;;;;;;;;28.50;49.50;;;;;;4988070;28;20050;-86
2022/07/14 05:41:01;;;;;;;7.70;3.63;;;27.90;50.30;;;;;;4985406;28;19964;-88
2022/07/14 05:43:27;;;;;;;8.05;3.67;;;26.80;50.20;;;;;;4992509;28;20014;-88
2022/07/14 05:46:09;;;;;;;7.78;3.10;;;26.10;51.60;;;;;;4991474;28;20019;-87
2022/07/14 05:48:37;;;;;;;5.20;3.25;;;25.50;52.70;;;;;;4980833;28;20078;-88
2022/07/14 05:51:10;;;;;;;9.23;5.55;;;25.10;52.40;;;;;;4985597;28;20018;-91
2022/07/14 05:53:36;;;;;;;8.65;4.35;;;24.80;52.60;;;;;;4980254;28;20459;-87
2022/07/14 05:56:04;;;;;;;12.85;4.93;;;24.40;53.70;;;;;;4991537;28;20113;-89
2022/07/14 05:58:30;;;;;;;8.40;4.68;;;24.10;54.60;;;;;;4992329;28;20018;-90
2022/07/14 06:00:55;;;;;;;15.93;8.95;;;23.90;55.90;;;;;;5013890;28;20038;-87
2022/07/14 06:03:21;;;;;;;17.48;7.50;;;23.70;56.50;;;;;;5008202;28;20514;-88
2022/07/14 06:05:47;;;;;;;13.15;7.28;;;23.50;56.40;;;;;;5004801;28;20031;-87
2022/07/14 06:08:13;;;;;;;8.23;4.05;;;23.40;57.50;;;;;;4981961;28;20026;-87
2022/07/14 06:10:39;;;;;;;11.70;5.05;;;23.40;57.40;;;;;;4992950;28;20084;-88
2022/07/14 06:13:04;;;;;;;9.05;5.32;;;23.50;57.30;;;;;;5004183;28;20475;-88
2022/07/14 06:15:30;;;;;;;13.60;6.95;;;23.60;56.90;;;;;;4994282;28;20109;-87
2022/07/14 06:17:56;;;;;;;7.70;4.00;;;23.60;56.50;;;;;;4985486;28;20019;-87
2022/07/14 06:20:22;;;;;;;7.78;4.68;;;23.60;56.20;;;;;;4976236;28;20161;-88
2022/07/14 06:22:50;;;;;;;9.77;4.10;;;23.50;57.10;;;;;;4985296;28;20057;-89
2022/07/14 06:25:16;;;;;;;9.13;4.70;;;23.50;56.60;;;;;;4982077;28;20027;-91
2022/07/14 06:27:42;;;;;;;11.10;4.57;;;23.50;57.00;;;;;;4976109;28;20069;-91
2022/07/14 06:30:12;;;;;;;9.98;4.78;;;23.80;57.30;;;;;;4978587;28;20046;-90
2022/07/14 06:32:39;;;;;;;9.50;4.53;;;24.40;56.30;;;;;;4965487;28;20022;-91
2022/07/14 06:35:06;;;;;;;9.70;4.57;;;25.70;54.10;;;;;;4978997;28;20034;-89
2022/07/14 06:37:34;;;;;;;13.43;5.28;;;26.50;51.30;;;;;;4990610;28;20046;-90
2022/07/14 06:40:04;;;;;;;14.90;5.38;;;27.50;50.50;;;;;;4992151;28;20573;-88
2022/07/14 06:42:30;;;;;;;11.73;4.75;;;28.60;48.60;;;;;;4990281;28;20018;-89
2022/07/14 06:44:56;;;;;;;8.20;4.45;;;29.00;46.90;;;;;;4984782;28;20100;-89
2022/07/14 06:47:22;;;;;;;11.85;4.97;;;28.70;47.80;;;;;;5002796;28;20064;-87
2022/07/14 06:49:48;;;;;;;15.75;5.03;;;28.30;47.60;;;;;;5013374;28;20033;-88
2022/07/14 06:52:13;;;;;;;16.77;5.28;;;28.60;47.60;;;;;;5003950;28;20467;-87
2022/07/14 06:54:42;;;;;;;12.30;5.80;;;29.60;46.70;;;;;;5005227;28;20096;-87
2022/07/14 06:57:08;;;;;;;18.77;5.88;;;31.80;45.60;;;;;;5001294;28;20029;-87
2022/07/14 06:59:34;;;;;;;9.90;5.60;;;32.80;43.10;;;;;;4997124;28;20031;-86
2022/07/14 07:02:00;;;;;;;14.10;6.00;;;33.30;41.90;;;;;;4977264;28;20114;-88
2022/07/14 07:04:26;;;;;;;10.70;4.80;;;33.30;42.40;;;;;;4997750;28;20060;-87
2022/07/14 07:06:58;;;;;;;9.53;3.90;;;32.50;42.40;;;;;;4996556;28;20033;-86
2022/07/14 07:09:23;;;;;;;8.27;4.55;;;31.70;41.80;;;;;;5003500;28;20022;-87
2022/07/14 07:11:50;;;;;;;9.27;4.88;;;30.90;43.10;;;;;;5007778;28;20100;-85
2022/07/14 07:14:17;;;;;;;11.98;5.22;;;;;;;;;;5002120;28;20029;-86
2022/07/14 07:16:47;;;;;;;9.52;5.05;;;28.60;45.80;;;;;;4978050;28;20117;-87
2022/07/14 07:19:16;;;;;;;13.18;5.53;;;;;;;;;;5006772;28;20077;-85
2022/07/14 07:21:43;;;;;;;11.73;4.88;;;;;;;;;;4988813;28;20042;-87
2022/07/14 07:24:09;;;;;;;7.70;4.68;;;27.20;48.30;;;;;;4993005;28;20030;-87
2022/07/14 07:26:37;;;;;;;16.07;5.73;;;26.00;51.30;;;;;;4982723;28;20034;-87
2022/07/14 07:29:04;;;;;;;7.32;4.25;;;25.70;51.80;;;;;;4982484;28;20028;-84
2022/07/14 07:31:31;;;;;;;6.15;4.82;;;25.60;51.70;;;;;;5001418;28;20066;-84
2022/07/14 07:33:57;;;;;;;13.30;5.20;;;25.10;52.80;;;;;;4978923;28;20041;-81
2022/07/14 07:36:23;;;;;;;13.50;5.57;;;24.60;54.60;;;;;;4983353;28;20038;-81
2022/07/14 07:38:48;;;;;;;13.13;5.65;;;24.30;55.70;;;;;;4996672;28;20084;-82
2022/07/14 07:44:05;;;;;;;9.30;5.40;;;23.50;59.30;;;;;;4990837;28;20033;-83
2022/07/14 07:46:32;;;;;;;12.40;5.25;;;;;;;;;;4993226;28;20022;-83
2022/07/14 07:48:58;;;;;;;12.13;5.82;;;;;;;;;;4991350;28;20079;-82
2022/07/14 07:51:24;;;;;;;11.07;6.25;;;23.00;61.50;;;;;;4992637;28;20104;-82
2022/07/14 07:53:50;;;;;;;14.68;6.03;;;22.50;66.20;;;;;;4991494;28;20142;-82
2022/07/14 07:56:16;;;;;;;17.70;6.78;;;22.40;67.00;;;;;;4992791;28;20065;-84
2022/07/14 07:58:42;;;;;;;10.68;5.53;;;22.50;65.40;;;;;;4988563;28;20042;-82
2022/07/14 08:01:09;;;;;;;13.07;4.97;;;22.50;65.00;;;;;;4994162;28;20045;-84
2022/07/14 08:03:37;;;;;;;11.75;5.22;;;22.70;65.40;;;;;;4993819;28;20018;-83
2022/07/14 08:06:05;;;;;;;10.52;5.85;;;23.10;65.50;;;;;;5000969;28;20040;-84
2022/07/14 08:08:31;;;;;;;13.60;5.80;;;23.20;64.60;;;;;;4993578;28;20018;-83
2022/07/14 08:10:57;;;;;;;11.98;5.20;;;23.40;65.20;;;;;;4975986;28;20495;-84
2022/07/14 08:13:23;;;;;;;10.10;5.03;;;24.30;62.40;;;;;;4976570;28;20022;-83
2022/07/14 08:15:49;;;;;;;6.65;5.15;;;25.00;59.40;;;;;;4994838;28;20033;-87
2022/07/14 08:18:16;;;;;;;10.02;5.05;;;25.70;57.50;;;;;;4980791;28;20331;-87
2022/07/14 08:20:41;;;;;;;8.80;4.65;;;26.40;56.00;;;;;;4980154;28;20046;-88
2022/07/14 08:23:09;;;;;;;9.02;5.63;;;27.30;53.70;;;;;;5007179;28;20117;-85
2022/07/14 08:25:35;;;;;;;8.60;5.57;;;27.50;52.30;;;;;;4998198;28;20053;-84
2022/07/14 08:28:01;;;;;;;10.55;5.68;;;27.40;52.00;;;;;;4993606;28;20026;-84
2022/07/14 08:30:27;;;;;;;9.80;5.65;;;27.60;52.70;;;;;;4988716;28;20022;-84
2022/07/14 08:32:53;;;;;;;12.48;6.00;;;28.30;51.90;;;;;;4992413;28;20495;-84
2022/07/14 08:35:24;;;;;;;13.48;5.18;;;28.80;49.30;;;;;;4992234;28;20046;-82
2022/07/14 08:37:51;;;;;;;12.43;6.13;;;28.70;50.30;;;;;;4978121;28;20046;-83
2022/07/14 08:40:21;;;;;;;14.65;6.78;;;28.50;49.20;;;;;;5003108;28;20039;-89
2022/07/14 08:42:49;;;;;;;13.38;6.40;;;28.10;49.50;;;;;;4979213;28;20037;-86
2022/07/14 08:45:17;;;;;;;12.75;7.25;;;28.00;50.00;;;;;;5006818;28;20029;-85
2022/07/14 08:47:47;;;;;;;15.80;6.70;;;27.90;50.20;;;;;;5003837;28;20049;-85
2022/07/14 08:50:15;;;;;;;14.15;6.85;;;28.10;50.10;;;;;;5027777;28;20088;-86
2022/07/14 08:52:43;;;;;;;11.93;5.28;;;28.80;49.80;;;;;;5013473;28;20014;-85
2022/07/14 08:55:11;;;;;;;10.05;5.78;;;29.40;47.20;;;;;;5006896;28;20534;-86
2022/07/14 08:57:38;;;;;;;16.77;6.03;;;30.10;46.30;;;;;;4996763;28;20647;-85
2022/07/14 09:00:08;;;;;;;12.25;4.93;;;;;;;;;;5000731;28;20109;-84
2022/07/14 09:02:34;;;;;;;16.67;5.50;;;31.70;45.30;;;;;;4984630;28;20026;-88
2022/07/14 09:05:00;;;;;;;10.67;5.00;;;33.20;41.20;;;;;;5004487;28;20022;-84
2022/07/14 09:07:35;;;;;;;9.93;4.23;;;32.80;41.50;;;;;;4984759;28;20054;-87
2022/07/14 09:10:14;;;;;;;6.53;3.85;;;32.30;42.10;;;;;;4967716;28;20030;-89
2022/07/14 09:12:47;;;;;;;4.60;3.67;;;32.00;41.60;;;;;;5016873;28;20096;-89
2022/07/14 09:18:04;;;;;;;7.45;4.78;;;32.20;41.10;;;;;;4997070;28;20108;-87
2022/07/14 09:20:32;;;;;;;11.88;5.30;;;31.70;43.00;;;;;;5014032;28;20033;-86
2022/07/14 09:23:01;;;;;;;7.97;4.50;;;31.70;43.70;;;;;;5006826;28;20023;-86
2022/07/14 09:25:29;;;;;;;8.90;4.05;;;31.60;42.70;;;;;;4985464;28;20022;-86
2022/07/14 09:27:58;;;;;;;12.52;4.72;;;31.60;42.70;;;;;;4987838;28;20134;-87
2022/07/14 09:30:25;;;;;;;11.38;7.25;;;31.80;43.50;;;;;;5000578;28;20026;-86
2022/07/14 09:32:56;;;;;;;8.43;6.05;;;31.70;43.90;;;;;;4986080;28;20407;-84
2022/07/14 09:35:34;;;;;;;7.25;4.75;;;32.00;44.00;;;;;;4997323;28;20038;-87
2022/07/14 09:38:12;;;;;;;6.82;4.13;;;32.30;42.90;;;;;;4997886;28;20046;-86
2022/07/14 09:40:38;;;;;;;11.68;4.45;;;32.80;42.30;;;;;;4998904;28;20061;-85
2022/07/14 09:43:09;;;;;;;7.05;4.13;;;33.60;42.10;;;;;;4998530;28;20022;-88
2022/07/14 09:45:36;;;;;;;6.05;3.95;;;34.40;40.70;;;;;;4997927;28;20034;-86
2022/07/14 09:48:07;;;;;;;7.32;3.80;;;34.40;40.20;;;;;;4981730;28;20582;-87
2022/07/14 09:50:42;;;;;;;7.53;3.30;;;34.10;39.40;;;;;;4997728;28;20022;-88
2022/07/14 09:53:17;;;;;;;11.32;4.07;;;32.80;40.30;;;;;;4997140;28;20060;-84
2022/07/14 09:55:53;;;;;;;5.55;3.67;;;31.30;42.20;;;;;;4998930;28;20491;-86
2022/07/14 09:58:25;;;;;;;8.27;4.97;;;29.90;44.00;;;;;;4998774;28;20026;-86
2022/07/14 10:00:58;;;;;;;6.53;3.95;;;28.50;46.20;;;;;;4983871;28;20554;-85
2022/07/14 10:03:27;;;;;;;5.25;3.83;;;27.40;48.30;;;;;;5006225;28;20046;-84
2022/07/14 10:05:54;;;;;;;5.35;4.10;;;26.60;50.10;;;;;;5007571;28;20030;-87
2022/07/14 10:08:25;;;;;;;;;;;26.10;51.30;;;;;;4985367;28;20495;-90
2022/07/14 10:10:55;;;;;;;9.27;4.63;;;25.90;50.40;;;;;;5003390;28;19913;-90
2022/07/14 10:13:22;;;;;;;6.95;4.60;;;25.80;53.00;;;;;;4982906;28;20037;-91
2022/07/14 10:15:50;;;;;;;8.80;4.60;;;25.80;52.50;;;;;;5000003;28;20030;-86
2022/07/14 10:18:16;;;;;;;9.98;4.35;;;25.80;52.80;;;;;;4986831;28;20022;-88
2022/07/14 10:21:04;;;;;;;6.27;4.13;;;26.00;53.10;;;;;;5007149;28;20085;-87
2022/07/14 10:23:35;;;;;;;6.35;4.50;;;26.40;52.30;;;;;;4998510;28;20694;-89
2022/07/14 10:26:08;;;;;;;5.22;4.43;;;26.80;52.50;;;;;;5007914;28;20053;-91
2022/07/14 10:28:34;;;;;;;12.85;4.78;;;27.00;51.40;;;;;;4984280;28;20109;-87
2022/07/14 10:31:34;;;;;;;7.75;4.25;;;27.20;51.50;;;;;;5008295;28;20142;-87
2022/07/14 10:34:22;;;;;;;10.15;5.15;;;27.80;51.00;;;;;;4999292;28;20416;-86
2022/07/14 10:36:59;;;;;;;11.45;4.55;;;28.40;49.80;;;;;;4999403;28;20049;-85
2022/07/14 10:40:49;;;;;;;8.10;4.65;;;28.90;49.50;;;;;;5010415;28;20077;-86
2022/07/14 10:43:01;;;;;;;11.00;5.28;;;28.70;49.20;;;;;;4987745;28;20051;-85
2022/07/14 10:45:29;;;;;;;8.73;4.82;;;28.70;48.90;;;;;;4994945;28;20030;-86
2022/07/14 10:47:55;;;;;;;10.05;5.25;;;28.80;49.00;;;;;;4979146;28;20487;-86
2022/07/14 10:50:26;;;;;;;7.53;4.50;;;28.40;48.90;;;;;;5000076;28;20156;-87
2022/07/14 10:53:03;;;;;;;7.03;4.45;;;27.90;50.00;;;;;;5005650;28;20066;-86
2022/07/14 10:55:29;;;;;;;9.02;4.40;;;27.50;50.70;;;;;;4989863;28;20026;-86
2022/07/14 10:58:03;;;;;;;9.05;5.30;;;26.70;52.20;;;;;;4996719;28;20027;-85
2022/07/14 11:00:43;;;;;;;6.60;4.25;;;26.20;53.40;;;;;;4985244;28;20452;-83
2022/07/14 11:03:24;;;;;;;6.70;4.95;;;25.90;53.20;;;;;;4992208;28;20019;-86
2022/07/14 11:06:08;;;;;;;7.30;4.75;;;25.80;53.30;;;;;;4977737;28;20026;-88
2022/07/14 11:08:42;;;;;;;5.05;3.35;;;25.70;52.10;;;;;;5014015;28;20430;-88
2022/07/14 11:11:25;;;;;;;5.82;3.78;;;25.40;51.10;;;;;;4999317;28;20026;-83
2022/07/14 11:14:13;;;;;;;8.18;3.90;;;25.30;51.80;;;;;;4977282;28;20104;-87
2022/07/14 11:16:46;;;;;;;4.38;3.28;;;25.10;53.60;;;;;;4976890;28;20122;-84
2022/07/14 11:19:25;;;;;;;3.63;3.15;;;24.60;55.60;;;;;;5017987;28;20041;-87
2022/07/14 11:22:14;;;;;;;8.95;4.60;;;23.80;57.30;;;;;;4985597;28;20521;-85
2022/07/14 11:24:54;;;;;;;7.68;4.05;;;23.90;59.60;;;;;;4998335;28;20376;-88
2022/07/14 11:27:31;;;;;;;6.38;4.30;;;24.10;56.60;;;;;;5007355;28;20056;-86
2022/07/14 11:30:15;;;;;;;5.85;3.67;;;24.40;57.10;;;;;;5003946;28;20188;-84
2022/07/14 11:32:42;;;;;;;5.82;3.72;;;24.50;55.30;;;;;;4987803;28;20068;-84
2022/07/14 11:38:22;;;;;;;5.45;4.07;;;24.30;56.10;;;;;;5000329;28;20053;-85
2022/07/14 11:40:53;;;;;;;4.60;3.95;;;24.50;55.90;;;;;;5002914;28;20105;-82
2022/07/14 11:43:36;;;;;;;7.25;5.45;;;24.90;56.40;;;;;;5004180;28;20023;-83
2022/07/14 11:46:22;;;;;;;7.07;4.82;;;25.50;55.50;;;;;;4979322;28;20462;-84
2022/07/14 11:48:53;;;;;;;5.88;3.70;;;25.80;54.40;;;;;;4993531;28;20031;-84
2022/07/14 11:51:19;;;;;;;6.57;4.00;;;25.80;53.30;;;;;;4986204;28;20050;-83
2022/07/14 11:54:00;;;;;;;4.60;3.10;;;25.70;53.50;;;;;;4994146;28;20375;-90
2022/07/14 11:56:27;;;;;;;3.67;3.25;;;25.40;52.60;;;;;;4994025;28;20383;-85
2022/07/14 11:58:57;;;;;;;4.63;3.08;;;24.70;53.90;;;;;;4995284;28;20026;-86
2022/07/14 12:01:22;;;;;;;6.97;3.42;;;24.50;55.10;;;;;;4994476;28;20113;-85
2022/07/14 12:04:03;;;;;;;6.15;3.72;;;24.40;55.60;;;;;;4994395;28;20054;-87
2022/07/14 12:06:29;;;;;;;8.00;3.70;;;24.50;56.60;;;;;;4993574;28;20021;-87
2022/07/14 12:08:55;;;;;;;7.82;3.60;;;24.80;55.70;;;;;;4994775;28;20031;-88
2022/07/14 12:11:21;;;;;;;5.82;3.63;;;24.80;54.60;;;;;;4990736;28;20101;-86
2022/07/14 12:13:53;;;;;;;6.47;2.97;;;24.60;54.20;;;;;;4994526;28;20499;-86
2022/07/14 12:16:21;;;;;;;6.75;3.78;;;24.50;54.80;;;;;;4993988;28;20460;-85
2022/07/14 12:18:47;;;;;;;6.97;3.42;;;24.50;54.70;;;;;;4998772;28;20049;-87
2022/07/14 12:21:14;;;;;;;8.27;4.25;;;24.40;54.80;;;;;;5014950;28;20419;-84
2022/07/14 12:23:56;;;;;;;3.92;3.15;;;24.30;55.80;;;;;;5013481;28;20021;-82
2022/07/14 12:26:24;;;;;;;6.45;3.38;;;24.20;54.90;;;;;;4979221;28;20034;-86
2022/07/14 12:28:52;;;;;;;5.75;3.85;;;24.00;55.70;;;;;;4996635;28;20030;-86
2022/07/14 12:31:19;;;;;;;7.13;4.25;;;24.00;56.60;;;;;;5007178;28;20022;-87
2022/07/14 12:33:46;;;;;;;4.75;3.72;;;24.00;57.30;;;;;;5008091;28;20021;-88
2022/07/14 12:36:18;;;;;;;7.00;3.55;;;24.20;57.20;;;;;;5017150;28;20042;-85
2022/07/14 12:38:45;;;;;;;6.45;3.65;;;24.20;56.30;;;;;;5012860;28;20459;-86
2022/07/14 12:41:14;;;;;;;6.45;4.38;;;24.20;55.80;;;;;;4980141;28;20032;-85
2022/07/14 12:43:42;;;;;;;8.32;4.18;;;24.10;56.20;;;;;;4997750;28;20023;-84
2022/07/14 12:46:16;;;;;;;3.65;3.35;;;24.10;56.20;;;;;;4996864;28;20026;-84
2022/07/14 12:48:52;;;;;;;8.07;5.25;;;24.20;55.90;;;;;;4999530;28;20122;-85
2022/07/14 12:51:37;;;;;;;4.93;4.13;;;24.40;56.50;;;;;;5011422;28;20089;-85
2022/07/14 12:54:05;;;;;;;5.35;3.13;;;24.50;55.70;;;;;;5001062;28;20091;-86
2022/07/14 12:56:52;;;;;;;4.88;3.97;;;24.60;55.10;;;;;;4991852;28;20042;-90
2022/07/14 12:59:20;;;;;;;;;;;24.70;54.80;;;;;;4999109;28;20144;-85
2022/07/14 13:02:06;;;;;;;5.22;2.90;;;24.70;54.90;;;;;;4991985;28;19913;-88
2022/07/14 13:04:46;;;;;;;5.53;2.95;;;24.60;53.50;;;;;;5008994;28;20090;-83
2022/07/14 13:07:20;;;;;;;3.63;3.22;;;24.30;54.50;;;;;;4977530;28;20034;-87
2022/07/14 13:10:10;;;;;;;6.35;3.42;;;24.00;55.60;;;;;;5010186;28;20046;-86
2022/07/14 13:12:40;;;;;;;10.35;4.78;;;23.90;57.10;;;;;;4979928;28;20085;-85
2022/07/14 13:15:13;;;;;;;11.52;6.10;;;24.00;58.10;;;;;;4996970;28;20426;-86